Time;durP1;ratioP1;P1;durP2;ratioP2;P2;SDS_P1;SDS_P2;PMS_P1;PMS_P2;Temp;Humidity;BMP_temperature;BMP_pressure;BME280_temperature;BME280_humidity;BME280_pressure;Samples;Min_cycle;Max_cycle;Signal;HPM_P1;HPM_P2
2022/06/04 00:01:45;;;;;;;3.22;1.48;;;11.00;84.80;;;;;;5008992;28;20026;-57
2022/06/04 00:04:17;;;;;;;3.25;1.13;;;11.00;85.10;;;;;;5008948;28;20395;-53
2022/06/04 00:06:44;;;;;;;2.58;1.25;;;11.10;83.60;;;;;;5008514;28;20049;-57
2022/06/04 00:09:15;;;;;;;2.30;1.20;;;11.20;85.60;;;;;;5008236;28;20018;-57
2022/06/04 00:17:07;;;;;;;4.10;0.47;;;11.70;79.80;;;;;;5012209;28;20033;-62
2022/06/04 00:19:34;;;;;;;1.52;0.40;;;12.00;76.60;;;;;;5013013;28;20030;-57
2022/06/04 00:22:03;;;;;;;2.40;0.50;;;12.20;74.60;;;;;;5013138;28;20045;-57
2022/06/04 00:24:31;;;;;;;1.20;0.52;;;12.30;75.60;;;;;;5012522;28;20032;-58
2022/06/04 00:26:58;;;;;;;2.05;0.77;;;12.30;76.70;;;;;;5011693;28;20125;-57
2022/06/04 00:29:25;;;;;;;1.05;0.60;;;12.50;76.10;;;;;;5012760;28;20877;-57
2022/06/04 00:31:53;;;;;;;5.65;1.13;;;12.60;76.20;;;;;;5010350;28;20049;-57
2022/06/04 00:34:20;;;;;;;1.05;0.50;;;12.60;74.90;;;;;;5011556;28;20482;-56
2022/06/04 00:36:48;;;;;;;1.90;0.65;;;12.70;77.50;;;;;;5011951;28;20112;-54
2022/06/04 00:39:15;;;;;;;1.30;0.43;;;12.80;74.50;;;;;;5012309;28;20429;-56
2022/06/04 00:42:11;;;;;;;2.92;0.63;;;12.90;75.30;;;;;;5011755;28;20113;-57
2022/06/04 00:44:41;;;;;;;1.23;0.50;;;13.00;74.40;;;;;;5005710;28;20093;-56
2022/06/04 00:47:20;;;;;;;2.67;0.77;;;13.10;71.10;;;;;;5011979;28;20092;-58
2022/06/04 00:49:47;;;;;;;1.45;0.77;;;13.30;72.10;;;;;;4992680;28;20030;-58
2022/06/04 00:52:16;;;;;;;1.15;0.60;;;13.40;70.50;;;;;;4992557;28;20023;-56
2022/06/04 00:54:46;;;;;;;1.23;0.40;;;13.50;68.60;;;;;;4992193;28;20031;-55
2022/06/04 00:57:51;;;;;;;3.22;0.43;;;13.60;69.20;;;;;;4992248;28;20407;-57
2022/06/04 01:00:48;;;;;;;2.28;0.30;;;13.70;67.60;;;;;;4999754;28;20085;-55
2022/06/04 01:03:28;;;;;;;0.57;0.30;;;13.80;66.20;;;;;;4972743;28;20034;-55
2022/06/04 01:06:10;;;;;;;1.23;0.60;;;14.00;66.30;;;;;;4991353;28;20022;-56
2022/06/04 01:09:22;;;;;;;0.38;0.30;;;14.00;65.60;;;;;;4992489;28;20031;-54
2022/06/04 01:12:25;;;;;;;0.40;0.25;;;14.10;65.90;;;;;;4991569;28;20050;-54
2022/06/04 01:15:25;;;;;;;1.25;0.40;;;14.20;66.40;;;;;;4990594;28;20034;-55
2022/06/04 01:18:05;;;;;;;0.30;0.20;;;14.30;66.10;;;;;;4949581;28;20416;-56
2022/06/04 01:20:36;;;;;;;1.40;0.65;;;14.40;65.80;;;;;;4975339;28;20030;-53
2022/06/04 01:23:15;;;;;;;0.47;0.30;;;14.40;62.90;;;;;;4990831;28;20452;-50
2022/06/04 01:26:18;;;;;;;0.98;0.40;;;14.50;64.50;;;;;;4991315;28;20034;-54
2022/06/04 01:28:54;;;;;;;1.08;0.30;;;14.60;65.40;;;;;;4992186;28;20038;-53
2022/06/04 01:31:27;;;;;;;0.95;0.50;;;14.70;63.40;;;;;;4990276;28;20014;-55
2022/06/04 01:34:01;;;;;;;3.70;0.65;;;14.70;63.30;;;;;;4992404;28;20400;-55
2022/06/04 01:36:43;;;;;;;2.20;0.70;;;14.80;64.50;;;;;;4992688;28;20029;-55
2022/06/04 01:41:03;;;;;;;1.10;0.30;;;14.80;62.40;;;;;;4992476;28;20026;-56
2022/06/04 01:42:17;;;;;;;3.17;0.50;;;14.90;62.50;;;;;;4992277;28;20041;-54
2022/06/04 01:44:46;;;;;;;1.17;0.45;;;15.00;60.00;;;;;;4992579;28;20025;-57
2022/06/04 01:47:14;;;;;;;1.10;0.30;;;15.10;59.50;;;;;;4991752;28;20089;-53
2022/06/04 01:49:51;;;;;;;2.65;1.00;;;15.20;59.20;;;;;;4981600;28;20092;-56
2022/06/04 01:52:29;;;;;;;5.55;0.50;;;15.20;60.50;;;;;;4991901;28;20018;-55
2022/06/04 01:55:24;;;;;;;1.83;1.08;;;15.30;60.90;;;;;;4991265;28;20189;-61
2022/06/04 01:58:08;;;;;;;4.63;0.50;;;15.40;58.90;;;;;;4987403;28;20014;-59
2022/06/04 02:01:06;;;;;;;2.67;0.38;;;15.50;58.40;;;;;;4989820;28;20153;-61
2022/06/04 02:03:46;;;;;;;3.22;0.50;;;15.50;59.20;;;;;;4985343;28;20410;-61
2022/06/04 02:06:19;;;;;;;5.82;0.40;;;15.50;58.50;;;;;;4990038;28;22005;-61
2022/06/04 02:08:53;;;;;;;4.13;0.55;;;15.60;58.50;;;;;;4990382;28;20471;-62
2022/06/04 02:11:23;;;;;;;6.43;0.50;;;15.70;57.40;;;;;;4990469;28;20023;-61
2022/06/04 02:13:52;;;;;;;0.70;0.35;;;15.70;58.10;;;;;;4990327;28;20038;-62
2022/06/04 02:16:41;;;;;;;1.02;0.50;;;15.90;56.20;;;;;;4990142;28;20015;-62
2022/06/04 02:19:08;;;;;;;5.47;0.77;;;15.80;55.10;;;;;;4990305;28;20026;-62
2022/06/04 02:21:36;;;;;;;1.60;0.45;;;15.80;56.90;;;;;;4990327;28;20417;-64
2022/06/04 02:24:05;;;;;;;1.52;0.40;;;15.80;55.80;;;;;;4990238;28;20072;-62
2022/06/04 02:26:33;;;;;;;1.17;0.40;;;15.90;55.20;;;;;;4988846;28;20061;-62
2022/06/04 02:29:01;;;;;;;1.20;0.45;;;15.90;56.30;;;;;;4989321;28;20018;-62
2022/06/04 02:31:56;;;;;;;1.17;0.28;;;16.00;56.60;;;;;;4989824;28;20491;-61
2022/06/04 02:34:41;;;;;;;2.67;0.50;;;16.10;56.20;;;;;;4989748;28;20033;-61
2022/06/04 02:37:19;;;;;;;4.10;0.38;;;16.20;57.10;;;;;;4989412;28;20023;-61
2022/06/04 02:40:04;;;;;;;1.05;0.40;;;16.30;55.00;;;;;;4988797;28;20085;-61
2022/06/04 02:42:42;;;;;;;0.43;0.25;;;16.20;55.90;;;;;;4989691;28;20037;-59
2022/06/04 02:45:21;;;;;;;2.20;0.52;;;16.20;55.90;;;;;;4989558;28;20033;-61
2022/06/04 02:48:26;;;;;;;2.65;0.73;;;16.30;56.10;;;;;;4994124;28;20037;-62
2022/06/04 02:51:05;;;;;;;0.95;0.65;;;16.40;56.70;;;;;;4996059;28;20042;-62
2022/06/04 02:53:34;;;;;;;2.67;0.60;;;16.50;54.80;;;;;;5009356;28;20030;-62
2022/06/04 02:56:06;;;;;;;0.28;0.22;;;16.50;55.10;;;;;;5009784;28;20077;-62
2022/06/04 02:58:34;;;;;;;2.40;0.40;;;16.40;54.30;;;;;;5009331;28;20037;-62
2022/06/04 03:01:03;;;;;;;1.00;0.30;;;16.40;55.30;;;;;;5009200;28;20110;-62
2022/06/04 03:03:31;;;;;;;1.33;0.40;;;16.40;54.40;;;;;;5008474;28;20470;-62
2022/06/04 03:06:01;;;;;;;2.05;0.82;;;16.50;54.00;;;;;;5008879;28;20032;-62
2022/06/04 03:08:31;;;;;;;1.40;0.60;;;16.50;53.90;;;;;;5008443;28;20399;-62
2022/06/04 03:10:59;;;;;;;2.95;0.93;;;16.50;54.50;;;;;;5008692;28;20022;-63
2022/06/04 03:13:26;;;;;;;5.97;0.50;;;16.50;55.60;;;;;;5008363;28;20030;-63
2022/06/04 03:15:54;;;;;;;1.33;0.43;;;16.60;54.50;;;;;;5009268;28;20447;-60
2022/06/04 03:18:21;;;;;;;14.00;0.55;;;16.60;54.60;;;;;;5010696;28;20026;-63
2022/06/04 03:20:49;;;;;;;3.20;0.50;;;16.60;54.80;;;;;;5010733;28;20483;-62
2022/06/04 03:23:16;;;;;;;1.40;0.32;;;16.60;55.10;;;;;;5010449;28;20106;-62
2022/06/04 03:25:44;;;;;;;2.25;0.88;;;16.70;55.10;;;;;;5009913;28;20037;-61
2022/06/04 03:28:11;;;;;;;2.08;0.60;;;16.70;53.80;;;;;;5010541;28;20030;-62
2022/06/04 03:30:39;;;;;;;3.45;0.70;;;16.80;54.40;;;;;;5009367;28;20456;-62
2022/06/04 03:33:07;;;;;;;1.42;0.32;;;16.80;53.90;;;;;;5008982;28;20080;-58
2022/06/04 03:35:35;;;;;;;1.75;0.35;;;16.80;52.90;;;;;;5008406;28;20379;-58
2022/06/04 03:38:02;;;;;;;1.15;0.30;;;16.80;53.70;;;;;;5008886;28;20014;-58
2022/06/04 03:40:30;;;;;;;3.03;0.43;;;16.80;54.20;;;;;;5008500;28;20026;-57
2022/06/04 03:42:57;;;;;;;5.28;0.60;;;16.80;53.90;;;;;;5008872;28;20054;-56
2022/06/04 03:45:27;;;;;;;6.80;0.40;;;16.90;53.70;;;;;;5009591;28;20402;-57
2022/06/04 03:47:56;;;;;;;2.22;0.43;;;17.00;53.20;;;;;;5008047;28;20042;-58
2022/06/04 03:50:25;;;;;;;4.43;0.52;;;16.90;53.80;;;;;;4991249;28;20479;-59
2022/06/04 03:52:53;;;;;;;4.18;0.43;;;17.00;54.10;;;;;;5011511;28;20070;-57
2022/06/04 03:55:21;;;;;;;0.55;0.30;;;17.00;52.60;;;;;;5011631;28;20030;-59
2022/06/04 03:57:50;;;;;;;1.50;0.38;;;17.10;54.10;;;;;;5009118;28;20049;-60
2022/06/04 04:00:22;;;;;;;3.30;0.73;;;17.00;54.30;;;;;;5011799;28;20045;-60
2022/06/04 04:02:53;;;;;;;1.80;0.47;;;17.10;54.00;;;;;;5012662;28;20032;-61
2022/06/04 04:05:25;;;;;;;1.13;0.40;;;17.10;53.50;;;;;;5012012;28;20033;-60
2022/06/04 04:07:54;;;;;;;1.25;0.63;;;17.10;53.40;;;;;;4994413;28;20034;-61
2022/06/04 04:10:22;;;;;;;1.27;0.32;;;17.10;53.90;;;;;;5012170;28;20026;-61
2022/06/04 04:12:50;;;;;;;0.82;0.32;;;17.00;53.70;;;;;;5011998;28;20383;-60
2022/06/04 04:15:18;;;;;;;2.40;0.57;;;17.00;53.50;;;;;;5012287;28;20014;-60
2022/06/04 04:17:47;;;;;;;1.25;0.50;;;16.90;53.00;;;;;;5011517;28;20061;-60
2022/06/04 04:20:22;;;;;;;3.42;0.98;;;16.90;53.40;;;;;;5011513;28;20022;-60
2022/06/04 04:22:49;;;;;;;1.02;0.50;;;16.90;56.20;;;;;;5011988;28;20030;-60
2022/06/04 04:25:19;;;;;;;1.10;0.50;;;16.90;53.50;;;;;;5012039;28;20018;-60
2022/06/04 04:27:47;;;;;;;1.50;0.40;;;16.90;54.40;;;;;;5011918;28;20113;-60
2022/06/04 04:30:17;;;;;;;2.10;0.80;;;16.90;53.30;;;;;;5011979;28;20029;-60
2022/06/04 04:32:44;;;;;;;0.98;0.40;;;16.80;54.00;;;;;;5012123;28;20022;-60
2022/06/04 04:35:25;;;;;;;2.45;0.68;;;16.80;53.30;;;;;;5011808;28;20045;-60
2022/06/04 04:37:52;;;;;;;2.67;1.02;;;16.70;53.80;;;;;;5012588;28;20022;-59
2022/06/04 04:40:23;;;;;;;2.72;0.90;;;16.70;55.60;;;;;;5013360;28;20017;-58
2022/06/04 04:42:51;;;;;;;2.72;0.60;;;16.80;55.30;;;;;;5013298;28;20021;-59
2022/06/04 04:45:20;;;;;;;0.85;0.50;;;16.80;55.80;;;;;;5013136;28;20026;-59
2022/06/04 04:47:48;;;;;;;1.33;0.50;;;16.80;55.40;;;;;;5012594;28;20046;-59
2022/06/04 04:50:47;;;;;;;2.00;0.60;;;16.80;55.90;;;;;;5012758;28;20533;-60
2022/06/04 04:53:14;;;;;;;1.55;0.40;;;16.80;55.10;;;;;;4982901;28;20558;-60
2022/06/04 04:55:48;;;;;;;3.47;0.65;;;16.70;53.80;;;;;;5012695;28;20046;-60
2022/06/04 04:58:15;;;;;;;2.55;0.65;;;16.50;53.20;;;;;;5011342;28;20061;-59
2022/06/04 05:00:45;;;;;;;2.15;0.40;;;16.40;54.00;;;;;;5012700;28;20049;-60
2022/06/04 05:03:13;;;;;;;1.23;0.55;;;16.40;55.60;;;;;;5012847;28;20018;-59
2022/06/04 05:05:40;;;;;;;0.93;0.40;;;16.40;55.20;;;;;;5032448;28;20498;-60
2022/06/04 05:08:07;;;;;;;2.63;0.60;;;16.30;54.60;;;;;;5032827;28;20040;-59
2022/06/04 05:10:35;;;;;;;1.45;0.50;;;16.10;54.60;;;;;;5032914;28;20474;-60
2022/06/04 05:13:02;;;;;;;3.65;0.63;;;16.00;55.10;;;;;;5032507;28;20071;-59
2022/06/04 05:15:30;;;;;;;1.95;0.50;;;16.00;56.10;;;;;;5032118;28;20021;-59
2022/06/04 05:17:57;;;;;;;0.45;0.30;;;15.90;55.80;;;;;;5032185;28;20112;-60
2022/06/04 05:20:24;;;;;;;1.23;0.50;;;15.80;56.10;;;;;;5032042;28;20025;-60
2022/06/04 05:22:52;;;;;;;2.70;0.70;;;15.70;56.50;;;;;;5032191;28;20021;-61
2022/06/04 05:25:19;;;;;;;1.85;0.55;;;15.70;56.40;;;;;;5031755;28;20040;-61
2022/06/04 05:27:46;;;;;;;0.63;0.35;;;15.60;57.20;;;;;;5032204;28;20064;-60
2022/06/04 05:30:14;;;;;;;3.55;1.20;;;15.50;56.10;;;;;;5032097;28;20378;-60
2022/06/04 05:32:41;;;;;;;4.85;2.30;;;15.50;57.10;;;;;;5031797;28;20124;-61
2022/06/04 05:35:09;;;;;;;6.55;2.53;;;15.50;56.20;;;;;;5014596;28;20021;-60
2022/06/04 05:37:36;;;;;;;1.65;0.88;;;15.40;55.70;;;;;;5014629;28;20490;-60
2022/06/04 05:40:07;;;;;;;1.88;1.35;;;15.30;55.90;;;;;;5014015;28;20371;-60
2022/06/04 05:42:35;;;;;;;2.08;0.60;;;15.20;56.50;;;;;;5032085;28;20494;-60
2022/06/04 05:45:03;;;;;;;0.85;0.52;;;15.10;56.70;;;;;;5031710;28;20034;-60
2022/06/04 05:47:30;;;;;;;2.88;0.63;;;15.00;57.00;;;;;;5031621;28;20033;-60
2022/06/04 05:49:57;;;;;;;1.73;0.80;;;14.90;57.90;;;;;;5031898;28;20049;-60
2022/06/04 05:52:24;;;;;;;2.08;0.77;;;14.80;57.60;;;;;;5031391;28;20036;-60
2022/06/04 05:54:52;;;;;;;1.30;0.80;;;14.70;58.50;;;;;;5031703;28;20024;-60
2022/06/04 05:57:19;;;;;;;2.20;1.10;;;14.60;58.30;;;;;;5031634;28;20017;-60
2022/06/04 05:59:48;;;;;;;2.47;0.90;;;14.50;58.70;;;;;;5031555;28;20366;-60
2022/06/04 06:02:15;;;;;;;2.25;0.70;;;14.30;59.40;;;;;;5031572;28;20662;-60
2022/06/04 06:04:43;;;;;;;1.13;0.52;;;14.20;59.80;;;;;;5013676;28;20037;-60
2022/06/04 06:07:10;;;;;;;0.98;0.40;;;14.20;59.60;;;;;;5031380;28;20060;-60
2022/06/04 06:09:37;;;;;;;2.22;0.30;;;14.10;60.00;;;;;;5031932;28;20044;-60
2022/06/04 06:12:05;;;;;;;1.23;0.50;;;14.00;60.50;;;;;;5031554;28;20022;-60
2022/06/04 06:14:32;;;;;;;2.03;0.57;;;14.00;60.70;;;;;;5030322;28;20071;-59
2022/06/04 06:16:59;;;;;;;1.38;0.68;;;13.90;60.70;;;;;;5031205;28;20132;-59
2022/06/04 06:19:28;;;;;;;2.65;1.23;;;13.80;61.20;;;;;;5031287;28;20508;-60
2022/06/04 06:21:59;;;;;;;5.70;0.90;;;13.80;61.60;;;;;;5030815;28;20057;-59
2022/06/04 06:24:26;;;;;;;2.20;0.70;;;13.70;61.60;;;;;;5031090;28;20025;-59
2022/06/04 06:26:57;;;;;;;2.20;0.80;;;13.60;61.90;;;;;;5031000;28;20065;-59
2022/06/04 06:29:29;;;;;;;3.33;0.73;;;13.50;62.60;;;;;;5031065;28;20610;-60
2022/06/04 06:31:58;;;;;;;2.35;1.10;;;13.40;63.70;;;;;;5030940;28;20450;-60
2022/06/04 06:34:26;;;;;;;2.00;0.80;;;13.30;63.90;;;;;;5030936;28;20080;-59
2022/06/04 06:36:55;;;;;;;5.63;0.95;;;13.10;64.20;;;;;;5030692;28;20041;-59
2022/06/04 06:39:23;;;;;;;1.95;0.82;;;13.00;64.70;;;;;;5030836;28;20382;-59
2022/06/04 06:41:50;;;;;;;2.00;0.90;;;12.90;65.10;;;;;;5013083;28;20033;-60
2022/06/04 06:44:17;;;;;;;1.75;0.73;;;12.70;65.60;;;;;;5030649;28;20029;-61
2022/06/04 06:46:49;;;;;;;3.88;1.30;;;12.60;66.10;;;;;;5030363;28;20037;-61
2022/06/04 06:49:19;;;;;;;2.58;1.15;;;12.50;66.60;;;;;;5030823;28;20045;-59
2022/06/04 06:51:49;;;;;;;3.50;1.75;;;12.30;67.20;;;;;;5012778;28;20033;-59
2022/06/04 06:54:18;;;;;;;2.35;0.90;;;12.20;67.50;;;;;;5012993;28;20017;-59
2022/06/04 06:56:47;;;;;;;2.20;1.00;;;12.10;67.80;;;;;;5030380;28;20120;-59
2022/06/04 06:59:15;;;;;;;1.73;0.98;;;12.00;68.90;;;;;;5030359;28;20025;-59
2022/06/04 07:01:43;;;;;;;3.15;1.20;;;12.00;68.90;;;;;;5030520;28;20045;-59
2022/06/04 07:04:11;;;;;;;5.22;1.63;;;12.00;68.90;;;;;;5030696;28;20026;-59
2022/06/04 07:06:40;;;;;;;3.08;1.35;;;11.90;69.10;;;;;;5029481;28;20040;-59
2022/06/04 07:09:28;;;;;;;4.35;2.03;;;11.90;69.30;;;;;;5030834;28;20116;-58
2022/06/04 07:11:56;;;;;;;6.38;2.88;;;11.80;69.60;;;;;;5030093;28;20030;-61
2022/06/04 07:14:24;;;;;;;10.25;3.70;;;11.90;70.00;;;;;;5030429;28;20033;-59
2022/06/04 07:16:53;;;;;;;7.47;3.83;;;11.80;69.40;;;;;;5030244;28;20028;-60
2022/06/04 07:19:22;;;;;;;8.85;4.63;;;11.70;69.90;;;;;;5030492;28;20022;-59
2022/06/04 07:21:50;;;;;;;6.63;3.05;;;11.70;69.60;;;;;;5030336;28;20076;-59
2022/06/04 07:24:18;;;;;;;4.00;2.15;;;11.70;70.10;;;;;;5030609;28;20064;-60
2022/06/04 07:26:48;;;;;;;6.82;2.22;;;11.70;70.00;;;;;;5034458;28;20431;-59
2022/06/04 07:29:16;;;;;;;6.32;2.40;;;11.50;70.40;;;;;;5016543;28;20037;-60
2022/06/04 07:31:44;;;;;;;3.50;1.75;;;11.60;70.50;;;;;;5034206;28;20033;-59
2022/06/04 07:34:11;;;;;;;5.45;1.52;;;11.50;70.80;;;;;;5016646;28;20098;-60
2022/06/04 07:36:43;;;;;;;4.47;2.10;;;11.50;70.90;;;;;;5034642;28;20029;-59
2022/06/04 07:39:14;;;;;;;4.38;2.00;;;11.50;70.80;;;;;;5034963;28;20021;-60
2022/06/04 07:41:44;;;;;;;3.42;1.75;;;11.50;71.00;;;;;;5034425;28;20067;-64
2022/06/04 07:44:13;;;;;;;5.68;2.63;;;11.50;70.80;;;;;;5034367;28;20021;-62
2022/06/04 07:46:42;;;;;;;3.47;1.92;;;11.40;70.90;;;;;;5016590;28;20037;-60
2022/06/04 07:49:10;;;;;;;5.40;1.70;;;11.40;70.90;;;;;;5034310;28;20073;-60
2022/06/04 07:51:38;;;;;;;2.42;1.50;;;11.40;71.00;;;;;;5034142;28;20394;-60
2022/06/04 07:54:10;;;;;;;7.30;2.75;;;11.30;71.40;;;;;;5034141;28;20068;-60
2022/06/04 07:56:38;;;;;;;5.22;2.20;;;11.20;71.50;;;;;;5034408;28;20096;-60
2022/06/04 07:59:08;;;;;;;5.93;2.13;;;11.20;72.20;;;;;;5034105;28;20048;-60
2022/06/04 08:01:36;;;;;;;4.03;2.22;;;11.10;72.10;;;;;;5033897;28;20021;-60
2022/06/04 08:04:03;;;;;;;6.40;2.40;;;11.00;72.20;;;;;;5015956;28;20034;-60
2022/06/04 08:06:31;;;;;;;6.80;2.15;;;10.90;73.10;;;;;;5033626;28;20025;-60
2022/06/04 08:08:59;;;;;;;4.68;2.33;;;10.80;72.90;;;;;;5033657;28;20017;-60
2022/06/04 08:11:32;;;;;;;3.38;2.08;;;10.70;73.40;;;;;;5033584;28;20017;-59
2022/06/04 08:14:17;;;;;;;7.28;3.22;;;10.70;73.30;;;;;;5033704;28;20022;-59
2022/06/04 08:16:47;;;;;;;4.93;2.33;;;10.50;74.00;;;;;;5033308;28;20110;-60
2022/06/04 08:19:15;;;;;;;4.38;2.13;;;10.40;74.60;;;;;;5033554;28;20036;-60
2022/06/04 08:21:42;;;;;;;6.40;2.67;;;10.20;75.80;;;;;;5015706;28;20022;-62
2022/06/04 08:24:11;;;;;;;4.75;2.72;;;10.10;77.10;;;;;;5016172;28;20025;-59
2022/06/04 08:26:41;;;;;;;6.32;2.78;;;9.90;77.60;;;;;;5015924;28;20034;-59
2022/06/04 08:29:08;;;;;;;7.55;2.88;;;9.80;78.50;;;;;;5033906;28;20155;-60
2022/06/04 08:31:35;;;;;;;8.57;3.00;;;9.60;79.20;;;;;;5033017;28;20445;-59
2022/06/04 08:34:04;;;;;;;6.45;2.72;;;9.50;79.70;;;;;;5015390;28;20309;-59
2022/06/04 08:36:33;;;;;;;5.75;2.60;;;9.50;80.70;;;;;;5032021;28;20885;-59
2022/06/04 08:39:02;;;;;;;5.30;2.72;;;9.50;80.20;;;;;;5033207;28;20474;-60
2022/06/04 08:41:55;;;;;;;6.45;3.28;;;9.50;80.50;;;;;;5033132;28;20053;-59
2022/06/04 08:44:46;;;;;;;5.50;2.78;;;9.60;80.00;;;;;;5033123;28;20017;-59
2022/06/04 08:47:25;;;;;;;4.00;2.65;;;9.50;80.00;;;;;;5032873;28;20052;-61
2022/06/04 08:50:04;;;;;;;3.60;2.35;;;9.60;80.20;;;;;;5032659;28;20048;-60
2022/06/04 08:52:58;;;;;;;4.28;2.10;;;9.50;79.90;;;;;;5015098;28;20022;-61
2022/06/04 08:58:48;;;;;;;7.63;2.47;;;9.60;80.00;;;;;;5033090;28;20109;-59
2022/06/04 09:01:31;;;;;;;5.95;2.65;;;9.50;80.40;;;;;;5032773;28;20026;-59
2022/06/04 09:04:22;;;;;;;3.33;1.85;;;9.80;78.50;;;;;;5032828;28;20024;-59
2022/06/04 09:07:15;;;;;;;4.63;2.13;;;9.90;77.90;;;;;;5032417;28;20033;-60
2022/06/04 09:09:48;;;;;;;6.90;2.80;;;9.90;77.20;;;;;;5032814;28;20104;-60
2022/06/04 09:12:27;;;;;;;5.57;2.40;;;9.90;77.40;;;;;;5032256;28;20025;-60
2022/06/04 09:15:29;;;;;;;5.10;2.00;;;9.90;77.50;;;;;;5032347;28;20025;-60
2022/06/04 09:18:21;;;;;;;3.92;1.88;;;9.90;77.00;;;;;;5030251;28;20486;-60
2022/06/04 09:20:51;;;;;;;5.00;1.70;;;9.90;76.60;;;;;;5032108;28;20022;-60
2022/06/04 09:23:39;;;;;;;3.90;2.40;;;9.90;76.20;;;;;;5032348;28;20032;-60
2022/06/04 09:26:09;;;;;;;7.00;3.28;;;10.00;77.20;;;;;;5032253;28;20033;-59
2022/06/04 09:28:57;;;;;;;10.10;3.90;;;10.00;77.30;;;;;;5032223;28;20116;-59
2022/06/04 09:31:49;;;;;;;4.90;2.85;;;9.90;77.90;;;;;;5032165;28;20018;-59
2022/06/04 09:34:22;;;;;;;8.52;3.55;;;9.90;78.00;;;;;;5032118;28;20103;-59
2022/06/04 09:36:50;;;;;;;10.57;4.97;;;9.80;78.80;;;;;;5031853;28;20053;-60
2022/06/04 09:39:27;;;;;;;8.98;4.35;;;9.70;79.50;;;;;;5031989;28;20032;-59
2022/06/04 09:42:17;;;;;;;12.85;4.38;;;9.70;79.80;;;;;;5031951;28;20064;-59
2022/06/04 09:45:02;;;;;;;5.60;3.35;;;9.60;80.50;;;;;;5031656;28;20042;-59
2022/06/04 09:47:35;;;;;;;7.18;3.13;;;9.50;81.20;;;;;;5013646;28;20034;-60
2022/06/04 09:50:24;;;;;;;7.68;3.33;;;9.40;81.80;;;;;;5031620;28;20045;-60
2022/06/04 09:53:02;;;;;;;6.15;3.03;;;9.30;81.80;;;;;;5027855;28;20041;-60
2022/06/04 09:55:32;;;;;;;5.05;3.20;;;9.20;82.30;;;;;;5013863;28;20021;-60
2022/06/04 09:58:18;;;;;;;5.72;3.17;;;9.30;82.70;;;;;;5031734;28;20105;-59
2022/06/04 10:01:06;;;;;;;5.05;2.28;;;9.30;82.50;;;;;;5031735;28;20056;-60
2022/06/04 10:03:39;;;;;;;5.15;2.42;;;9.20;82.50;;;;;;5031480;28;20067;-60
2022/06/04 10:06:16;;;;;;;5.60;2.90;;;9.10;82.60;;;;;;5013539;28;20024;-60
2022/06/04 10:11:55;;;;;;;5.57;2.90;;;8.80;83.40;;;;;;5031860;28;20414;-62
2022/06/04 10:14:34;;;;;;;5.43;2.80;;;8.70;84.40;;;;;;5031045;28;20096;-62
2022/06/04 10:17:02;;;;;;;6.88;3.47;;;8.50;85.00;;;;;;5031166;28;20026;-60
2022/06/04 10:19:30;;;;;;;7.32;3.75;;;8.50;85.80;;;;;;5031052;28;20060;-59
2022/06/04 10:22:12;;;;;;;6.75;3.65;;;8.30;85.50;;;;;;5031288;28;20021;-60
2022/06/04 10:24:57;;;;;;;8.70;4.72;;;8.20;86.40;;;;;;5031643;28;20021;-60
2022/06/04 10:28:00;;;;;;;8.55;3.65;;;8.10;87.20;;;;;;5031137;28;20040;-60
2022/06/04 10:30:48;;;;;;;6.30;3.88;;;8.00;88.40;;;;;;5031149;28;20032;-60
2022/06/04 10:33:44;;;;;;;4.75;2.83;;;8.00;87.90;;;;;;5031045;28;20030;-60
2022/06/04 10:36:31;;;;;;;6.03;3.63;;;7.90;88.40;;;;;;5031336;28;20021;-59
2022/06/04 10:39:33;;;;;;;9.68;3.70;;;7.80;88.10;;;;;;5030310;28;20029;-59
2022/06/04 10:42:16;;;;;;;6.00;3.40;;;7.70;88.40;;;;;;5030961;28;20025;-60
2022/06/04 10:44:58;;;;;;;6.65;4.22;;;7.70;89.10;;;;;;5031348;28;20040;-59
2022/06/04 10:47:28;;;;;;;6.93;3.42;;;7.70;89.70;;;;;;5030296;28;20033;-61
2022/06/04 10:50:07;;;;;;;6.78;3.72;;;7.70;89.70;;;;;;5030323;28;20053;-59
2022/06/04 10:52:37;;;;;;;6.25;4.15;;;7.60;89.90;;;;;;5029211;28;20021;-60
2022/06/04 10:55:13;;;;;;;7.03;4.10;;;7.60;90.10;;;;;;5012471;28;20028;-59
2022/06/04 10:58:12;;;;;;;9.35;4.65;;;7.60;90.30;;;;;;5031073;28;20498;-60
2022/06/04 11:00:52;;;;;;;12.02;4.80;;;7.60;90.30;;;;;;5029006;28;20033;-60
2022/06/04 11:03:48;;;;;;;11.35;5.72;;;7.60;90.40;;;;;;5030619;28;20068;-60
2022/06/04 11:06:21;;;;;;;10.27;5.15;;;7.60;90.40;;;;;;5030481;28;20032;-60
2022/06/04 11:08:58;;;;;;;7.97;4.63;;;7.60;90.40;;;;;;5028904;28;20108;-60
2022/06/04 11:11:35;;;;;;;8.60;3.72;;;7.60;90.80;;;;;;5010898;28;20022;-60
2022/06/04 11:14:19;;;;;;;6.32;3.05;;;7.60;90.10;;;;;;5028710;28;20036;-60
2022/06/04 11:17:05;;;;;;;5.68;2.83;;;7.70;90.40;;;;;;5028829;28;20013;-60
2022/06/04 11:19:35;;;;;;;6.88;3.20;;;7.70;89.50;;;;;;5028386;28;20034;-60
2022/06/04 11:22:30;;;;;;;3.90;2.38;;;7.70;89.60;;;;;;5028579;28;20032;-60
2022/06/04 11:25:32;;;;;;;5.03;2.25;;;7.80;89.90;;;;;;4999106;28;20038;-59
2022/06/04 11:28:10;;;;;;;5.20;2.15;;;7.80;89.30;;;;;;5007912;28;20045;-58
2022/06/04 11:30:49;;;;;;;3.30;2.00;;;7.80;88.30;;;;;;5010262;28;20033;-59
2022/06/04 11:33:44;;;;;;;4.70;2.50;;;7.80;88.20;;;;;;4992845;28;20572;-58
2022/06/04 11:36:24;;;;;;;5.22;2.40;;;7.70;87.50;;;;;;5010215;28;20101;-56
2022/06/04 11:39:02;;;;;;;4.80;2.65;;;7.60;89.40;;;;;;5010379;28;20034;-58
2022/06/04 11:41:52;;;;;;;7.35;3.60;;;7.60;88.80;;;;;;5010299;28;20479;-58
2022/06/04 11:44:56;;;;;;;5.72;2.60;;;7.50;89.10;;;;;;5010257;28;20377;-56
2022/06/04 11:47:41;;;;;;;4.28;2.70;;;7.40;89.10;;;;;;5006485;28;20038;-60
2022/06/04 11:50:14;;;;;;;4.07;2.75;;;7.30;90.20;;;;;;4998781;28;20037;-58
2022/06/04 11:53:16;;;;;;;4.78;2.50;;;7.30;90.60;;;;;;5010292;28;20105;-59
2022/06/04 11:55:51;;;;;;;2.90;1.80;;;7.30;91.00;;;;;;4987104;28;20042;-59
2022/06/04 11:58:54;;;;;;;2.35;1.95;;;7.30;90.70;;;;;;5007547;28;20036;-59
2022/06/04 12:01:51;;;;;;;4.78;1.80;;;7.30;90.80;;;;;;4992573;28;20088;-59
2022/06/04 12:04:45;;;;;;;7.40;2.13;;;7.40;90.70;;;;;;4954373;28;20105;-57
2022/06/04 12:07:30;;;;;;;4.78;2.08;;;7.30;90.70;;;;;;5005105;28;20038;-59
2022/06/04 12:10:12;;;;;;;5.72;2.00;;;7.30;90.70;;;;;;4990550;28;20019;-59
2022/06/04 12:13:01;;;;;;;5.75;1.80;;;7.30;90.70;;;;;;5002728;28;20445;-58
2022/06/04 12:15:45;;;;;;;4.60;2.20;;;7.20;90.50;;;;;;5013689;28;20109;-57
2022/06/04 12:18:27;;;;;;;3.70;1.77;;;7.10;90.80;;;;;;5009707;28;20034;-59
2022/06/04 12:26:47;;;;;;;3.03;1.33;;;7.20;90.90;;;;;;5013175;28;20455;-60
2022/06/04 12:29:29;;;;;;;4.75;1.98;;;7.20;91.00;;;;;;5013586;28;20025;-60
2022/06/04 12:32:23;;;;;;;3.97;2.03;;;7.10;91.20;;;;;;5013484;28;20033;-60
2022/06/04 12:35:03;;;;;;;3.83;1.50;;;7.10;91.60;;;;;;5013400;28;20101;-60
2022/06/04 12:37:39;;;;;;;3.47;1.40;;;7.10;91.20;;;;;;5013354;28;20030;-60
2022/06/04 12:40:29;;;;;;;2.45;1.27;;;7.10;91.60;;;;;;5013107;28;20057;-60
2022/06/04 12:43:10;;;;;;;4.22;2.05;;;7.00;91.40;;;;;;5010517;28;20084;-60
2022/06/04 12:45:46;;;;;;;4.22;1.50;;;7.00;92.00;;;;;;5012843;28;20493;-59
2022/06/04 12:48:26;;;;;;;4.03;1.50;;;7.00;91.80;;;;;;5013318;28;20058;-60
2022/06/04 12:50:59;;;;;;;4.93;2.45;;;7.00;91.80;;;;;;5012912;28;20040;-59
2022/06/04 12:53:30;;;;;;;3.85;1.67;;;7.00;91.70;;;;;;5013068;28;20022;-59
2022/06/04 12:56:05;;;;;;;3.97;2.05;;;7.00;92.00;;;;;;4994930;28;20026;-59
2022/06/04 12:58:48;;;;;;;3.67;2.35;;;6.90;91.90;;;;;;5012615;28;20032;-59
2022/06/04 13:01:18;;;;;;;3.42;1.80;;;6.90;92.00;;;;;;5012907;28;20140;-59
2022/06/04 13:04:02;;;;;;;2.58;1.70;;;6.90;92.20;;;;;;5012490;28;20034;-60
2022/06/04 13:06:53;;;;;;;4.38;1.70;;;6.90;92.10;;;;;;5012963;28;20064;-59
2022/06/04 13:09:32;;;;;;;4.50;1.45;;;6.90;92.00;;;;;;5013042;28;20463;-60
2022/06/04 13:12:11;;;;;;;4.07;2.47;;;7.00;92.20;;;;;;5012504;28;20109;-60
2022/06/04 13:14:53;;;;;;;2.97;1.10;;;7.10;92.40;;;;;;5012743;28;20022;-60
2022/06/04 13:17:41;;;;;;;8.57;3.28;;;7.10;92.20;;;;;;5012386;28;20092;-60
2022/06/04 13:20:43;;;;;;;2.60;1.00;;;7.10;92.00;;;;;;5012524;28;20542;-60
2022/06/04 13:23:10;;;;;;;3.00;1.50;;;7.10;91.90;;;;;;4993412;28;20025;-60
2022/06/04 13:25:43;;;;;;;3.08;1.40;;;7.20;92.10;;;;;;5012124;28;20026;-59
2022/06/04 13:28:39;;;;;;;2.53;1.20;;;7.20;91.80;;;;;;5012622;28;20034;-60
2022/06/04 13:31:28;;;;;;;2.90;1.33;;;7.30;91.50;;;;;;5005705;28;20074;-59
2022/06/04 13:33:57;;;;;;;4.60;1.45;;;7.20;91.60;;;;;;5012169;28;20552;-60
2022/06/04 13:36:28;;;;;;;2.88;1.88;;;7.20;91.30;;;;;;4994766;28;20037;-58
2022/06/04 13:38:58;;;;;;;3.00;1.27;;;7.20;92.00;;;;;;5012562;28;20026;-59
2022/06/04 13:44:30;;;;;;;2.42;1.27;;;7.40;91.60;;;;;;5011660;28;20068;-59
2022/06/04 13:47:15;;;;;;;4.15;1.67;;;7.40;91.80;;;;;;5012140;28;20041;-59
2022/06/04 13:49:48;;;;;;;3.03;1.77;;;7.50;91.30;;;;;;4968437;28;20138;-59
2022/06/04 13:52:27;;;;;;;4.53;1.48;;;7.60;91.20;;;;;;4954672;28;20106;-60
2022/06/04 13:55:00;;;;;;;3.22;1.27;;;7.60;91.30;;;;;;4972551;28;20058;-59